This is the latest recevied weather packets stored in our database for station/object DK2OO-6. If no packets are shown the sender has not sent any weather packets the latest 10 day(s).
| Time | Temp. | Humidity | Pressure | Rain* | Wind** | Luminosity | Snow |
|---|---|---|---|---|---|---|---|
| 1788148158 | 15.56° C | 84% | 1009.7 hPa | 0 mm | - | - | - |
| 1788147550 | 15.56° C | 84% | 1009.6 hPa | 0 mm | - | - | - |
| 1788146348 | 15.56° C | 84% | 1009.4 hPa | 0 mm | - | - | - |
| 1788145135 | 15.56° C | 84% | 1009.4 hPa | 0 mm | - | - | - |
| 1788122182 | 17.78° C | 76% | 1009.4 hPa | 0 mm | - | - | - |
| 1788121574 | 17.78° C | 75% | 1009.5 hPa | 0 mm | - | - | - |
| 1788120970 | 17.78° C | 75% | 1009.8 hPa | 0 mm | - | - | - |
| 1788120361 | 18.33° C | 74% | 1009.8 hPa | 0 mm | - | - | - |
| 1788119753 | 18.33° C | 74% | 1009.9 hPa | 0 mm | - | - | - |
| 1788116732 | 20.56° C | 67% | 1009.7 hPa | 0 mm | - | - | - |
| 1788116124 | 20.56° C | 67% | 1009.6 hPa | 0 mm | - | - | - |
| 1788112498 | 22.78° C | 62% | 1009.4 hPa | 0 mm | - | - | - |
| 1788107661 | 23.89° C | 59% | 1009.1 hPa | 0 mm | - | - | - |
| 1788107055 | 24.44° C | 59% | 1009.2 hPa | 0 mm | - | - | - |
| 1788106455 | 24.44° C | 58% | 1009.2 hPa | 0 mm | - | - | - |
| 1788105852 | 25° C | 56% | 1009 hPa | 0 mm | - | - | - |
| 1788104041 | 25° C | 55% | 1009 hPa | 0 mm | - | - | - |
| 1788101017 | 25.56° C | 56% | 1009.3 hPa | 0 mm | - | - | - |
| 1788099198 | 25.56° C | 55% | 1009.3 hPa | 0 mm | - | - | - |
| 1788097379 | 25.56° C | 55% | 1009.3 hPa | 0 mm | - | - | - |
| 1788096773 | 25.56° C | 56% | 1009.4 hPa | 0 mm | - | - | - |
| 1788094969 | 25.56° C | 57% | 1009.7 hPa | 0 mm | - | - | - |
| 1788093155 | 25.56° C | 56% | 1010 hPa | 0 mm | - | - | - |
| 1788092554 | 25.56° C | 58% | 1009.8 hPa | 0 mm | - | - | - |
| 1788091354 | 25° C | 59% | 1010.1 hPa | 0 mm | - | - | - |
* Rain latest hour (hover to see other rain measurements)
** Current wind speed in m/s (hover to see current wind gust speed)